sensor_id;sensor_type;location;lat;lon;timestamp;P1;durP1;ratioP1;P2;durP2;ratioP2
44222;SDS011;29895;48.804;9.386;2023-06-14T00:00:39;10.30;;;4.30;;
44222;SDS011;29895;48.804;9.386;2023-06-14T00:03:06;7.50;;;4.00;;
44222;SDS011;29895;48.804;9.386;2023-06-14T00:05:35;4.75;;;3.50;;
44222;SDS011;29895;48.804;9.386;2023-06-14T00:08:06;6.13;;;3.97;;
44222;SDS011;29895;48.804;9.386;2023-06-14T00:10:33;8.27;;;3.95;;
44222;SDS011;29895;48.804;9.386;2023-06-14T00:13:01;7.05;;;4.05;;
44222;SDS011;29895;48.804;9.386;2023-06-14T00:15:30;8.38;;;4.32;;
44222;SDS011;29895;48.804;9.386;2023-06-14T00:17:57;9.15;;;4.20;;
44222;SDS011;29895;48.804;9.386;2023-06-14T00:20:26;6.93;;;4.18;;
44222;SDS011;29895;48.804;9.386;2023-06-14T00:22:52;5.57;;;3.95;;
44222;SDS011;29895;48.804;9.386;2023-06-14T00:25:20;7.18;;;4.00;;
44222;SDS011;29895;48.804;9.386;2023-06-14T00:27:47;5.68;;;3.92;;
44222;SDS011;29895;48.804;9.386;2023-06-14T00:30:12;7.28;;;4.05;;
44222;SDS011;29895;48.804;9.386;2023-06-14T00:32:38;11.05;;;4.13;;
44222;SDS011;29895;48.804;9.386;2023-06-14T00:35:04;10.10;;;4.20;;
44222;SDS011;29895;48.804;9.386;2023-06-14T00:37:30;7.40;;;3.88;;
44222;SDS011;29895;48.804;9.386;2023-06-14T00:39:55;9.02;;;4.47;;
44222;SDS011;29895;48.804;9.386;2023-06-14T00:42:27;6.90;;;3.85;;
44222;SDS011;29895;48.804;9.386;2023-06-14T00:44:53;8.25;;;3.97;;
44222;SDS011;29895;48.804;9.386;2023-06-14T00:47:19;8.02;;;4.13;;
44222;SDS011;29895;48.804;9.386;2023-06-14T00:49:46;8.32;;;4.40;;
44222;SDS011;29895;48.804;9.386;2023-06-14T00:52:12;8.00;;;4.00;;
44222;SDS011;29895;48.804;9.386;2023-06-14T00:54:40;7.28;;;4.20;;
44222;SDS011;29895;48.804;9.386;2023-06-14T00:57:06;7.65;;;4.30;;
44222;SDS011;29895;48.804;9.386;2023-06-14T00:59:32;6.68;;;4.05;;
44222;SDS011;29895;48.804;9.386;2023-06-14T01:02:00;6.13;;;4.00;;
44222;SDS011;29895;48.804;9.386;2023-06-14T01:04:26;8.05;;;4.13;;
44222;SDS011;29895;48.804;9.386;2023-06-14T01:07:08;6.57;;;4.38;;
44222;SDS011;29895;48.804;9.386;2023-06-14T01:10:02;6.35;;;3.92;;
44222;SDS011;29895;48.804;9.386;2023-06-14T01:15:37;5.60;;;4.13;;
44222;SDS011;29895;48.804;9.386;2023-06-14T01:18:04;8.02;;;4.53;;
44222;SDS011;29895;48.804;9.386;2023-06-14T01:20:34;10.55;;;4.40;;
44222;SDS011;29895;48.804;9.386;2023-06-14T01:25:28;8.52;;;4.40;;
44222;SDS011;29895;48.804;9.386;2023-06-14T01:28:00;7.07;;;4.00;;
44222;SDS011;29895;48.804;9.386;2023-06-14T01:30:35;9.20;;;4.82;;
44222;SDS011;29895;48.804;9.386;2023-06-14T01:33:10;6.97;;;4.80;;
44222;SDS011;29895;48.804;9.386;2023-06-14T01:35:55;7.43;;;4.35;;
44222;SDS011;29895;48.804;9.386;2023-06-14T01:38:25;8.77;;;4.55;;
44222;SDS011;29895;48.804;9.386;2023-06-14T01:40:52;6.25;;;4.38;;
44222;SDS011;29895;48.804;9.386;2023-06-14T01:43:20;6.18;;;4.07;;
44222;SDS011;29895;48.804;9.386;2023-06-14T01:45:47;7.97;;;4.55;;
44222;SDS011;29895;48.804;9.386;2023-06-14T01:48:14;7.68;;;4.65;;
44222;SDS011;29895;48.804;9.386;2023-06-14T01:50:40;7.32;;;4.70;;
44222;SDS011;29895;48.804;9.386;2023-06-14T01:53:09;8.65;;;4.40;;
44222;SDS011;29895;48.804;9.386;2023-06-14T01:55:35;7.60;;;4.85;;
44222;SDS011;29895;48.804;9.386;2023-06-14T01:58:08;8.43;;;4.68;;
44222;SDS011;29895;48.804;9.386;2023-06-14T02:00:33;12.05;;;6.13;;
44222;SDS011;29895;48.804;9.386;2023-06-14T02:03:00;7.15;;;5.00;;
44222;SDS011;29895;48.804;9.386;2023-06-14T02:05:25;12.93;;;5.07;;
44222;SDS011;29895;48.804;9.386;2023-06-14T02:07:51;9.65;;;5.10;;
44222;SDS011;29895;48.804;9.386;2023-06-14T02:10:18;11.63;;;4.90;;
44222;SDS011;29895;48.804;9.386;2023-06-14T02:12:44;15.65;;;4.90;;
44222;SDS011;29895;48.804;9.386;2023-06-14T02:15:10;8.98;;;4.65;;
44222;SDS011;29895;48.804;9.386;2023-06-14T02:17:42;8.45;;;4.90;;
44222;SDS011;29895;48.804;9.386;2023-06-14T02:20:08;8.95;;;4.60;;
44222;SDS011;29895;48.804;9.386;2023-06-14T02:22:34;8.77;;;4.70;;
44222;SDS011;29895;48.804;9.386;2023-06-14T02:25:00;7.15;;;4.90;;
44222;SDS011;29895;48.804;9.386;2023-06-14T02:27:26;9.80;;;4.78;;
44222;SDS011;29895;48.804;9.386;2023-06-14T02:29:51;8.23;;;4.80;;
44222;SDS011;29895;48.804;9.386;2023-06-14T02:32:17;10.40;;;4.95;;
44222;SDS011;29895;48.804;9.386;2023-06-14T02:34:43;7.55;;;5.28;;
44222;SDS011;29895;48.804;9.386;2023-06-14T02:37:08;5.75;;;4.72;;
44222;SDS011;29895;48.804;9.386;2023-06-14T02:39:34;8.85;;;4.60;;
44222;SDS011;29895;48.804;9.386;2023-06-14T02:42:00;8.63;;;4.72;;
44222;SDS011;29895;48.804;9.386;2023-06-14T02:44:26;6.53;;;4.65;;
44222;SDS011;29895;48.804;9.386;2023-06-14T02:46:53;7.90;;;5.03;;
44222;SDS011;29895;48.804;9.386;2023-06-14T02:49:20;7.93;;;4.97;;
44222;SDS011;29895;48.804;9.386;2023-06-14T02:51:46;11.15;;;5.13;;
44222;SDS011;29895;48.804;9.386;2023-06-14T02:54:12;9.48;;;5.43;;
44222;SDS011;29895;48.804;9.386;2023-06-14T02:56:37;10.57;;;4.93;;
44222;SDS011;29895;48.804;9.386;2023-06-14T02:59:03;7.28;;;4.40;;
44222;SDS011;29895;48.804;9.386;2023-06-14T03:01:28;9.10;;;5.03;;
44222;SDS011;29895;48.804;9.386;2023-06-14T03:04:02;7.78;;;4.72;;
44222;SDS011;29895;48.804;9.386;2023-06-14T03:06:28;9.98;;;4.97;;
44222;SDS011;29895;48.804;9.386;2023-06-14T03:08:55;8.45;;;4.88;;
44222;SDS011;29895;48.804;9.386;2023-06-14T03:11:29;7.20;;;4.68;;
44222;SDS011;29895;48.804;9.386;2023-06-14T03:13:55;8.70;;;5.32;;
44222;SDS011;29895;48.804;9.386;2023-06-14T03:16:21;7.72;;;4.97;;
44222;SDS011;29895;48.804;9.386;2023-06-14T03:18:49;8.00;;;5.28;;
44222;SDS011;29895;48.804;9.386;2023-06-14T03:21:16;10.00;;;5.28;;
44222;SDS011;29895;48.804;9.386;2023-06-14T03:23:42;8.35;;;4.90;;
44222;SDS011;29895;48.804;9.386;2023-06-14T03:26:09;7.60;;;5.05;;
44222;SDS011;29895;48.804;9.386;2023-06-14T03:28:48;11.00;;;5.17;;
44222;SDS011;29895;48.804;9.386;2023-06-14T03:31:14;14.18;;;5.03;;
44222;SDS011;29895;48.804;9.386;2023-06-14T03:33:41;10.30;;;5.38;;
44222;SDS011;29895;48.804;9.386;2023-06-14T03:36:07;11.93;;;4.95;;
44222;SDS011;29895;48.804;9.386;2023-06-14T03:38:33;11.02;;;5.95;;
44222;SDS011;29895;48.804;9.386;2023-06-14T03:40:59;11.23;;;6.07;;
44222;SDS011;29895;48.804;9.386;2023-06-14T03:43:25;9.18;;;5.50;;
44222;SDS011;29895;48.804;9.386;2023-06-14T03:45:50;11.25;;;5.25;;
44222;SDS011;29895;48.804;9.386;2023-06-14T03:48:16;8.43;;;4.93;;
44222;SDS011;29895;48.804;9.386;2023-06-14T03:50:42;7.32;;;5.00;;
44222;SDS011;29895;48.804;9.386;2023-06-14T03:53:08;9.48;;;5.35;;
44222;SDS011;29895;48.804;9.386;2023-06-14T03:55:34;9.13;;;4.88;;
44222;SDS011;29895;48.804;9.386;2023-06-14T03:58:00;9.85;;;5.45;;
44222;SDS011;29895;48.804;9.386;2023-06-14T04:00:25;7.47;;;4.82;;
44222;SDS011;29895;48.804;9.386;2023-06-14T04:02:51;10.77;;;5.25;;
44222;SDS011;29895;48.804;9.386;2023-06-14T04:05:17;10.50;;;5.20;;
44222;SDS011;29895;48.804;9.386;2023-06-14T04:07:44;8.50;;;4.88;;
44222;SDS011;29895;48.804;9.386;2023-06-14T04:10:11;8.05;;;5.05;;
44222;SDS011;29895;48.804;9.386;2023-06-14T04:12:38;10.05;;;4.45;;
44222;SDS011;29895;48.804;9.386;2023-06-14T04:15:04;8.68;;;4.82;;
44222;SDS011;29895;48.804;9.386;2023-06-14T04:17:36;8.30;;;4.70;;
44222;SDS011;29895;48.804;9.386;2023-06-14T04:20:03;11.73;;;4.97;;
44222;SDS011;29895;48.804;9.386;2023-06-14T04:22:31;10.10;;;5.20;;
44222;SDS011;29895;48.804;9.386;2023-06-14T04:24:57;10.63;;;5.50;;
44222;SDS011;29895;48.804;9.386;2023-06-14T04:27:23;8.75;;;5.03;;
44222;SDS011;29895;48.804;9.386;2023-06-14T04:29:51;9.73;;;4.60;;
44222;SDS011;29895;48.804;9.386;2023-06-14T04:32:25;7.15;;;4.82;;
44222;SDS011;29895;48.804;9.386;2023-06-14T04:34:57;8.98;;;4.70;;
44222;SDS011;29895;48.804;9.386;2023-06-14T04:37:24;11.80;;;5.05;;
44222;SDS011;29895;48.804;9.386;2023-06-14T04:39:51;7.20;;;4.40;;
44222;SDS011;29895;48.804;9.386;2023-06-14T04:42:17;9.63;;;5.00;;
44222;SDS011;29895;48.804;9.386;2023-06-14T04:44:45;6.88;;;4.65;;
44222;SDS011;29895;48.804;9.386;2023-06-14T04:47:12;11.23;;;4.78;;
44222;SDS011;29895;48.804;9.386;2023-06-14T04:49:39;10.45;;;4.60;;
44222;SDS011;29895;48.804;9.386;2023-06-14T04:52:06;8.68;;;4.90;;
44222;SDS011;29895;48.804;9.386;2023-06-14T04:54:32;8.18;;;4.80;;
44222;SDS011;29895;48.804;9.386;2023-06-14T04:56:59;9.65;;;4.78;;
44222;SDS011;29895;48.804;9.386;2023-06-14T04:59:24;9.60;;;5.90;;
44222;SDS011;29895;48.804;9.386;2023-06-14T05:01:50;9.45;;;4.75;;
44222;SDS011;29895;48.804;9.386;2023-06-14T05:04:18;8.60;;;5.25;;
44222;SDS011;29895;48.804;9.386;2023-06-14T05:06:45;9.30;;;4.82;;
44222;SDS011;29895;48.804;9.386;2023-06-14T05:09:13;10.07;;;4.95;;
44222;SDS011;29895;48.804;9.386;2023-06-14T05:11:39;9.05;;;4.78;;
44222;SDS011;29895;48.804;9.386;2023-06-14T05:14:05;11.40;;;5.07;;
44222;SDS011;29895;48.804;9.386;2023-06-14T05:16:31;9.68;;;5.40;;
44222;SDS011;29895;48.804;9.386;2023-06-14T05:18:56;6.90;;;5.20;;
44222;SDS011;29895;48.804;9.386;2023-06-14T05:21:23;9.57;;;5.25;;
44222;SDS011;29895;48.804;9.386;2023-06-14T05:23:48;7.60;;;4.82;;
44222;SDS011;29895;48.804;9.386;2023-06-14T05:26:15;9.50;;;4.93;;
44222;SDS011;29895;48.804;9.386;2023-06-14T05:28:41;8.27;;;4.90;;
44222;SDS011;29895;48.804;9.386;2023-06-14T05:31:07;9.48;;;5.25;;
44222;SDS011;29895;48.804;9.386;2023-06-14T05:33:32;10.48;;;5.47;;
44222;SDS011;29895;48.804;9.386;2023-06-14T05:35:58;10.38;;;4.82;;
44222;SDS011;29895;48.804;9.386;2023-06-14T05:38:23;12.73;;;5.57;;
44222;SDS011;29895;48.804;9.386;2023-06-14T05:40:50;7.40;;;4.82;;
44222;SDS011;29895;48.804;9.386;2023-06-14T05:43:16;10.45;;;5.57;;
44222;SDS011;29895;48.804;9.386;2023-06-14T05:45:41;9.18;;;5.80;;
44222;SDS011;29895;48.804;9.386;2023-06-14T05:48:07;10.80;;;5.97;;
44222;SDS011;29895;48.804;9.386;2023-06-14T05:50:32;9.68;;;5.32;;
44222;SDS011;29895;48.804;9.386;2023-06-14T05:52:58;6.82;;;5.00;;
44222;SDS011;29895;48.804;9.386;2023-06-14T05:55:24;13.27;;;6.18;;
44222;SDS011;29895;48.804;9.386;2023-06-14T05:57:50;11.05;;;6.20;;
44222;SDS011;29895;48.804;9.386;2023-06-14T06:00:16;9.77;;;5.93;;
44222;SDS011;29895;48.804;9.386;2023-06-14T06:02:43;11.90;;;5.55;;
44222;SDS011;29895;48.804;9.386;2023-06-14T06:05:10;11.55;;;5.88;;
44222;SDS011;29895;48.804;9.386;2023-06-14T06:07:37;11.90;;;6.03;;
44222;SDS011;29895;48.804;9.386;2023-06-14T06:10:04;11.15;;;5.65;;
44222;SDS011;29895;48.804;9.386;2023-06-14T06:12:31;10.45;;;5.95;;
44222;SDS011;29895;48.804;9.386;2023-06-14T06:14:57;15.77;;;5.82;;
44222;SDS011;29895;48.804;9.386;2023-06-14T06:17:24;15.20;;;5.85;;
44222;SDS011;29895;48.804;9.386;2023-06-14T06:19:53;15.20;;;6.15;;
44222;SDS011;29895;48.804;9.386;2023-06-14T06:22:19;15.95;;;5.35;;
44222;SDS011;29895;48.804;9.386;2023-06-14T06:24:45;30.40;;;6.63;;
44222;SDS011;29895;48.804;9.386;2023-06-14T06:27:12;15.85;;;6.28;;
44222;SDS011;29895;48.804;9.386;2023-06-14T06:29:37;13.93;;;5.53;;
44222;SDS011;29895;48.804;9.386;2023-06-14T06:32:03;12.73;;;5.85;;
44222;SDS011;29895;48.804;9.386;2023-06-14T06:34:29;13.80;;;5.65;;
44222;SDS011;29895;48.804;9.386;2023-06-14T06:36:55;12.40;;;5.85;;
44222;SDS011;29895;48.804;9.386;2023-06-14T06:39:21;11.52;;;5.28;;
44222;SDS011;29895;48.804;9.386;2023-06-14T06:41:46;10.52;;;5.10;;
44222;SDS011;29895;48.804;9.386;2023-06-14T06:44:12;13.93;;;5.60;;
44222;SDS011;29895;48.804;9.386;2023-06-14T06:46:38;13.02;;;5.53;;
44222;SDS011;29895;48.804;9.386;2023-06-14T06:49:08;12.15;;;5.65;;
44222;SDS011;29895;48.804;9.386;2023-06-14T06:51:34;19.83;;;6.25;;
44222;SDS011;29895;48.804;9.386;2023-06-14T06:54:01;10.80;;;5.60;;
44222;SDS011;29895;48.804;9.386;2023-06-14T06:56:27;13.13;;;6.15;;
44222;SDS011;29895;48.804;9.386;2023-06-14T06:58:53;12.07;;;6.25;;
44222;SDS011;29895;48.804;9.386;2023-06-14T07:01:19;13.70;;;5.95;;
44222;SDS011;29895;48.804;9.386;2023-06-14T07:03:49;10.80;;;4.88;;
44222;SDS011;29895;48.804;9.386;2023-06-14T07:06:14;13.57;;;5.63;;
44222;SDS011;29895;48.804;9.386;2023-06-14T07:08:43;11.10;;;4.90;;
44222;SDS011;29895;48.804;9.386;2023-06-14T07:11:09;11.43;;;5.18;;
44222;SDS011;29895;48.804;9.386;2023-06-14T07:13:35;8.18;;;5.28;;
44222;SDS011;29895;48.804;9.386;2023-06-14T07:16:01;13.32;;;5.30;;
44222;SDS011;29895;48.804;9.386;2023-06-14T07:18:27;14.13;;;5.38;;
44222;SDS011;29895;48.804;9.386;2023-06-14T07:20:53;9.75;;;5.45;;
44222;SDS011;29895;48.804;9.386;2023-06-14T07:23:19;13.05;;;5.28;;
44222;SDS011;29895;48.804;9.386;2023-06-14T07:25:45;12.43;;;5.10;;
44222;SDS011;29895;48.804;9.386;2023-06-14T07:28:11;9.52;;;5.35;;
44222;SDS011;29895;48.804;9.386;2023-06-14T07:30:37;8.63;;;5.15;;
44222;SDS011;29895;48.804;9.386;2023-06-14T07:33:03;7.20;;;5.03;;
44222;SDS011;29895;48.804;9.386;2023-06-14T07:35:28;11.63;;;5.13;;
44222;SDS011;29895;48.804;9.386;2023-06-14T07:37:54;11.27;;;5.50;;
44222;SDS011;29895;48.804;9.386;2023-06-14T07:40:20;7.38;;;4.65;;
44222;SDS011;29895;48.804;9.386;2023-06-14T07:42:45;9.68;;;5.03;;
44222;SDS011;29895;48.804;9.386;2023-06-14T07:45:13;7.72;;;4.88;;
44222;SDS011;29895;48.804;9.386;2023-06-14T07:47:39;6.50;;;4.35;;
44222;SDS011;29895;48.804;9.386;2023-06-14T07:50:05;12.25;;;5.07;;
44222;SDS011;29895;48.804;9.386;2023-06-14T07:52:31;7.03;;;4.55;;
44222;SDS011;29895;48.804;9.386;2023-06-14T07:54:56;7.93;;;5.03;;
44222;SDS011;29895;48.804;9.386;2023-06-14T07:57:22;13.48;;;5.00;;
44222;SDS011;29895;48.804;9.386;2023-06-14T07:59:47;9.15;;;4.80;;
44222;SDS011;29895;48.804;9.386;2023-06-14T08:02:13;7.05;;;4.75;;
44222;SDS011;29895;48.804;9.386;2023-06-14T08:04:39;7.55;;;5.28;;
44222;SDS011;29895;48.804;9.386;2023-06-14T08:07:05;10.63;;;5.00;;
44222;SDS011;29895;48.804;9.386;2023-06-14T08:09:32;9.40;;;4.97;;
44222;SDS011;29895;48.804;9.386;2023-06-14T08:11:57;12.43;;;4.97;;
44222;SDS011;29895;48.804;9.386;2023-06-14T08:14:23;12.45;;;5.07;;
44222;SDS011;29895;48.804;9.386;2023-06-14T08:16:49;6.43;;;4.50;;
44222;SDS011;29895;48.804;9.386;2023-06-14T08:19:14;9.65;;;4.45;;
44222;SDS011;29895;48.804;9.386;2023-06-14T08:21:41;5.50;;;4.38;;
44222;SDS011;29895;48.804;9.386;2023-06-14T08:24:08;8.05;;;4.40;;
44222;SDS011;29895;48.804;9.386;2023-06-14T08:26:37;7.75;;;4.97;;
44222;SDS011;29895;48.804;9.386;2023-06-14T08:29:04;6.82;;;4.60;;
44222;SDS011;29895;48.804;9.386;2023-06-14T08:31:31;6.65;;;4.13;;
44222;SDS011;29895;48.804;9.386;2023-06-14T08:33:58;9.55;;;4.30;;
44222;SDS011;29895;48.804;9.386;2023-06-14T08:36:23;11.73;;;4.97;;
44222;SDS011;29895;48.804;9.386;2023-06-14T08:38:49;9.43;;;4.57;;
44222;SDS011;29895;48.804;9.386;2023-06-14T08:41:19;6.22;;;4.60;;
44222;SDS011;29895;48.804;9.386;2023-06-14T08:43:47;9.52;;;4.70;;
44222;SDS011;29895;48.804;9.386;2023-06-14T08:46:13;9.20;;;4.15;;
44222;SDS011;29895;48.804;9.386;2023-06-14T08:51:11;8.52;;;4.20;;
44222;SDS011;29895;48.804;9.386;2023-06-14T08:53:38;6.20;;;3.85;;
44222;SDS011;29895;48.804;9.386;2023-06-14T08:56:07;8.85;;;4.10;;
44222;SDS011;29895;48.804;9.386;2023-06-14T08:58:38;6.22;;;4.05;;
44222;SDS011;29895;48.804;9.386;2023-06-14T09:01:10;9.15;;;4.38;;
44222;SDS011;29895;48.804;9.386;2023-06-14T09:03:42;9.80;;;4.28;;
44222;SDS011;29895;48.804;9.386;2023-06-14T09:06:09;6.90;;;4.63;;
44222;SDS011;29895;48.804;9.386;2023-06-14T09:08:47;6.35;;;4.32;;
44222;SDS011;29895;48.804;9.386;2023-06-14T09:11:14;8.52;;;4.30;;
44222;SDS011;29895;48.804;9.386;2023-06-14T09:13:43;11.02;;;4.85;;
44222;SDS011;29895;48.804;9.386;2023-06-14T09:16:10;13.82;;;4.88;;
44222;SDS011;29895;48.804;9.386;2023-06-14T09:18:40;8.70;;;4.47;;
44222;SDS011;29895;48.804;9.386;2023-06-14T09:21:12;6.53;;;4.47;;
44222;SDS011;29895;48.804;9.386;2023-06-14T09:23:43;9.80;;;4.32;;
44222;SDS011;29895;48.804;9.386;2023-06-14T09:28:36;7.85;;;4.57;;
44222;SDS011;29895;48.804;9.386;2023-06-14T09:31:18;11.25;;;4.63;;
44222;SDS011;29895;48.804;9.386;2023-06-14T09:33:45;8.30;;;4.60;;
44222;SDS011;29895;48.804;9.386;2023-06-14T09:36:16;11.45;;;4.60;;
44222;SDS011;29895;48.804;9.386;2023-06-14T09:38:56;10.80;;;4.60;;
44222;SDS011;29895;48.804;9.386;2023-06-14T09:41:32;12.45;;;4.80;;
44222;SDS011;29895;48.804;9.386;2023-06-14T09:44:02;7.18;;;4.30;;
44222;SDS011;29895;48.804;9.386;2023-06-14T09:46:30;9.27;;;4.63;;
44222;SDS011;29895;48.804;9.386;2023-06-14T09:48:57;8.88;;;4.72;;
44222;SDS011;29895;48.804;9.386;2023-06-14T09:51:23;6.95;;;4.13;;
44222;SDS011;29895;48.804;9.386;2023-06-14T09:53:50;7.80;;;4.40;;
44222;SDS011;29895;48.804;9.386;2023-06-14T09:56:17;7.03;;;4.90;;
44222;SDS011;29895;48.804;9.386;2023-06-14T09:58:51;8.00;;;4.47;;
44222;SDS011;29895;48.804;9.386;2023-06-14T10:01:20;10.00;;;4.32;;
44222;SDS011;29895;48.804;9.386;2023-06-14T10:03:47;13.57;;;4.45;;
44222;SDS011;29895;48.804;9.386;2023-06-14T10:06:18;12.63;;;4.60;;
44222;SDS011;29895;48.804;9.386;2023-06-14T10:08:46;8.95;;;3.95;;
44222;SDS011;29895;48.804;9.386;2023-06-14T10:11:13;12.05;;;4.55;;
44222;SDS011;29895;48.804;9.386;2023-06-14T10:13:40;8.70;;;4.18;;
44222;SDS011;29895;48.804;9.386;2023-06-14T10:16:51;8.20;;;4.03;;
44222;SDS011;29895;48.804;9.386;2023-06-14T10:19:01;6.95;;;3.92;;
44222;SDS011;29895;48.804;9.386;2023-06-14T10:24:12;6.30;;;3.92;;
44222;SDS011;29895;48.804;9.386;2023-06-14T10:26:49;6.60;;;4.75;;
44222;SDS011;29895;48.804;9.386;2023-06-14T10:29:16;10.48;;;4.85;;
44222;SDS011;29895;48.804;9.386;2023-06-14T10:31:47;8.05;;;4.65;;
44222;SDS011;29895;48.804;9.386;2023-06-14T10:37:02;6.47;;;3.75;;
44222;SDS011;29895;48.804;9.386;2023-06-14T10:39:32;6.22;;;3.85;;
44222;SDS011;29895;48.804;9.386;2023-06-14T10:42:11;8.18;;;4.40;;
44222;SDS011;29895;48.804;9.386;2023-06-14T10:47:04;9.05;;;4.47;;
44222;SDS011;29895;48.804;9.386;2023-06-14T10:49:36;7.47;;;3.88;;
44222;SDS011;29895;48.804;9.386;2023-06-14T10:52:07;6.38;;;4.05;;
44222;SDS011;29895;48.804;9.386;2023-06-14T10:54:37;9.35;;;3.92;;
44222;SDS011;29895;48.804;9.386;2023-06-14T10:57:03;5.65;;;4.20;;
44222;SDS011;29895;48.804;9.386;2023-06-14T10:59:32;8.25;;;3.70;;
44222;SDS011;29895;48.804;9.386;2023-06-14T11:02:06;7.85;;;3.75;;
44222;SDS011;29895;48.804;9.386;2023-06-14T11:05:05;4.82;;;3.78;;
44222;SDS011;29895;48.804;9.386;2023-06-14T11:10:20;7.40;;;3.92;;
44222;SDS011;29895;48.804;9.386;2023-06-14T11:13:02;9.63;;;3.95;;
44222;SDS011;29895;48.804;9.386;2023-06-14T11:15:29;7.80;;;4.75;;
44222;SDS011;29895;48.804;9.386;2023-06-14T11:17:55;9.60;;;4.15;;
44222;SDS011;29895;48.804;9.386;2023-06-14T11:20:26;6.63;;;4.03;;
44222;SDS011;29895;48.804;9.386;2023-06-14T11:22:52;9.90;;;4.57;;
44222;SDS011;29895;48.804;9.386;2023-06-14T11:25:18;6.65;;;3.88;;
44222;SDS011;29895;48.804;9.386;2023-06-14T11:27:44;7.75;;;3.72;;
44222;SDS011;29895;48.804;9.386;2023-06-14T11:30:11;5.63;;;3.63;;
44222;SDS011;29895;48.804;9.386;2023-06-14T11:32:38;4.72;;;3.65;;
44222;SDS011;29895;48.804;9.386;2023-06-14T11:35:04;5.28;;;3.60;;
44222;SDS011;29895;48.804;9.386;2023-06-14T11:37:30;8.45;;;4.53;;
44222;SDS011;29895;48.804;9.386;2023-06-14T11:39:58;10.38;;;4.70;;
44222;SDS011;29895;48.804;9.386;2023-06-14T11:42:26;10.23;;;4.38;;
44222;SDS011;29895;48.804;9.386;2023-06-14T11:44:53;9.10;;;4.13;;
44222;SDS011;29895;48.804;9.386;2023-06-14T11:47:19;10.85;;;4.30;;
44222;SDS011;29895;48.804;9.386;2023-06-14T11:49:45;6.60;;;3.90;;
44222;SDS011;29895;48.804;9.386;2023-06-14T11:52:12;12.15;;;4.20;;
44222;SDS011;29895;48.804;9.386;2023-06-14T11:54:38;5.38;;;4.00;;
44222;SDS011;29895;48.804;9.386;2023-06-14T11:57:05;8.77;;;4.18;;
44222;SDS011;29895;48.804;9.386;2023-06-14T11:59:37;6.97;;;3.88;;
44222;SDS011;29895;48.804;9.386;2023-06-14T12:02:06;11.35;;;4.38;;
44222;SDS011;29895;48.804;9.386;2023-06-14T12:04:32;6.80;;;3.85;;
44222;SDS011;29895;48.804;9.386;2023-06-14T12:07:19;11.13;;;4.00;;
44222;SDS011;29895;48.804;9.386;2023-06-14T12:12:18;6.72;;;4.15;;
44222;SDS011;29895;48.804;9.386;2023-06-14T12:14:46;7.18;;;4.07;;
44222;SDS011;29895;48.804;9.386;2023-06-14T12:17:13;6.07;;;3.92;;
44222;SDS011;29895;48.804;9.386;2023-06-14T12:19:42;6.13;;;4.00;;
44222;SDS011;29895;48.804;9.386;2023-06-14T12:22:11;9.07;;;4.15;;
44222;SDS011;29895;48.804;9.386;2023-06-14T12:24:38;6.10;;;3.58;;
44222;SDS011;29895;48.804;9.386;2023-06-14T12:27:04;7.45;;;4.05;;
44222;SDS011;29895;48.804;9.386;2023-06-14T12:29:34;5.72;;;3.92;;
44222;SDS011;29895;48.804;9.386;2023-06-14T12:32:00;6.90;;;3.63;;
44222;SDS011;29895;48.804;9.386;2023-06-14T12:34:26;8.07;;;3.80;;
44222;SDS011;29895;48.804;9.386;2023-06-14T12:36:53;7.50;;;3.83;;
44222;SDS011;29895;48.804;9.386;2023-06-14T12:39:19;6.47;;;4.00;;
44222;SDS011;29895;48.804;9.386;2023-06-14T12:41:45;6.45;;;4.00;;
44222;SDS011;29895;48.804;9.386;2023-06-14T12:44:11;6.78;;;3.67;;
44222;SDS011;29895;48.804;9.386;2023-06-14T12:46:38;7.03;;;4.10;;
44222;SDS011;29895;48.804;9.386;2023-06-14T12:49:04;6.72;;;3.95;;
44222;SDS011;29895;48.804;9.386;2023-06-14T12:51:32;10.40;;;3.90;;
44222;SDS011;29895;48.804;9.386;2023-06-14T12:53:58;6.97;;;3.92;;
44222;SDS011;29895;48.804;9.386;2023-06-14T12:56:24;9.65;;;4.40;;
44222;SDS011;29895;48.804;9.386;2023-06-14T12:58:49;9.10;;;4.55;;
44222;SDS011;29895;48.804;9.386;2023-06-14T13:01:15;9.25;;;4.53;;
44222;SDS011;29895;48.804;9.386;2023-06-14T13:03:41;6.28;;;4.05;;
44222;SDS011;29895;48.804;9.386;2023-06-14T13:06:06;7.10;;;3.85;;
44222;SDS011;29895;48.804;9.386;2023-06-14T13:08:32;6.20;;;3.88;;
44222;SDS011;29895;48.804;9.386;2023-06-14T13:10:57;5.40;;;4.10;;
44222;SDS011;29895;48.804;9.386;2023-06-14T13:13:23;5.97;;;4.18;;
44222;SDS011;29895;48.804;9.386;2023-06-14T13:15:49;8.88;;;4.25;;
44222;SDS011;29895;48.804;9.386;2023-06-14T13:18:15;7.13;;;4.07;;
44222;SDS011;29895;48.804;9.386;2023-06-14T13:20:41;7.15;;;3.95;;
44222;SDS011;29895;48.804;9.386;2023-06-14T13:23:07;12.63;;;3.80;;
44222;SDS011;29895;48.804;9.386;2023-06-14T13:25:35;6.30;;;3.80;;
44222;SDS011;29895;48.804;9.386;2023-06-14T13:28:01;7.25;;;4.00;;
44222;SDS011;29895;48.804;9.386;2023-06-14T13:30:28;5.57;;;3.67;;
44222;SDS011;29895;48.804;9.386;2023-06-14T13:32:54;6.80;;;3.70;;
44222;SDS011;29895;48.804;9.386;2023-06-14T13:35:21;8.35;;;3.58;;
44222;SDS011;29895;48.804;9.386;2023-06-14T13:37:47;6.80;;;4.00;;
44222;SDS011;29895;48.804;9.386;2023-06-14T13:40:13;6.07;;;4.18;;
44222;SDS011;29895;48.804;9.386;2023-06-14T13:42:39;9.52;;;4.63;;
44222;SDS011;29895;48.804;9.386;2023-06-14T13:45:05;5.72;;;4.03;;
44222;SDS011;29895;48.804;9.386;2023-06-14T13:47:32;9.25;;;4.28;;
44222;SDS011;29895;48.804;9.386;2023-06-14T13:49:58;10.60;;;4.40;;
44222;SDS011;29895;48.804;9.386;2023-06-14T13:52:24;15.48;;;4.18;;
44222;SDS011;29895;48.804;9.386;2023-06-14T13:54:50;12.93;;;4.43;;
44222;SDS011;29895;48.804;9.386;2023-06-14T13:57:16;6.53;;;3.72;;
44222;SDS011;29895;48.804;9.386;2023-06-14T13:59:42;4.60;;;3.72;;
44222;SDS011;29895;48.804;9.386;2023-06-14T14:02:11;6.97;;;3.83;;
44222;SDS011;29895;48.804;9.386;2023-06-14T14:04:37;7.20;;;4.53;;
44222;SDS011;29895;48.804;9.386;2023-06-14T14:07:04;6.25;;;3.88;;
44222;SDS011;29895;48.804;9.386;2023-06-14T14:09:31;7.40;;;3.90;;
44222;SDS011;29895;48.804;9.386;2023-06-14T14:12:00;5.82;;;3.85;;
44222;SDS011;29895;48.804;9.386;2023-06-14T14:14:30;5.60;;;4.03;;
44222;SDS011;29895;48.804;9.386;2023-06-14T14:16:57;6.97;;;4.05;;
44222;SDS011;29895;48.804;9.386;2023-06-14T14:19:23;6.03;;;4.07;;
44222;SDS011;29895;48.804;9.386;2023-06-14T14:21:49;6.53;;;3.95;;
44222;SDS011;29895;48.804;9.386;2023-06-14T14:24:15;5.10;;;3.80;;
44222;SDS011;29895;48.804;9.386;2023-06-14T14:26:41;5.72;;;3.60;;
44222;SDS011;29895;48.804;9.386;2023-06-14T14:29:07;8.65;;;3.63;;
44222;SDS011;29895;48.804;9.386;2023-06-14T14:31:34;5.88;;;3.75;;
44222;SDS011;29895;48.804;9.386;2023-06-14T14:34:00;7.88;;;3.65;;
44222;SDS011;29895;48.804;9.386;2023-06-14T14:36:26;6.53;;;4.32;;
44222;SDS011;29895;48.804;9.386;2023-06-14T14:38:51;7.82;;;3.75;;
44222;SDS011;29895;48.804;9.386;2023-06-14T14:41:17;8.88;;;4.13;;
44222;SDS011;29895;48.804;9.386;2023-06-14T14:43:43;5.50;;;3.80;;
44222;SDS011;29895;48.804;9.386;2023-06-14T14:46:08;6.93;;;3.80;;
44222;SDS011;29895;48.804;9.386;2023-06-14T14:48:34;5.07;;;4.03;;
44222;SDS011;29895;48.804;9.386;2023-06-14T14:51:00;8.32;;;3.92;;
44222;SDS011;29895;48.804;9.386;2023-06-14T14:53:25;5.78;;;3.65;;
44222;SDS011;29895;48.804;9.386;2023-06-14T14:55:51;5.70;;;4.20;;
44222;SDS011;29895;48.804;9.386;2023-06-14T14:58:17;6.70;;;3.80;;
44222;SDS011;29895;48.804;9.386;2023-06-14T15:00:46;5.40;;;4.07;;
44222;SDS011;29895;48.804;9.386;2023-06-14T15:03:12;6.38;;;3.95;;
44222;SDS011;29895;48.804;9.386;2023-06-14T15:05:39;4.90;;;3.97;;
44222;SDS011;29895;48.804;9.386;2023-06-14T15:08:04;7.07;;;3.63;;